sensor_id;sensor_type;location;lat;lon;timestamp;pressure;altitude;pressure_sealevel;temperature;humidity
77469;BME280;68840;50.272;12.818;2023-11-19T00:00:10;96032;;;3.9;66.3
77469;BME280;68840;50.272;12.818;2023-11-19T00:02:08;96027;;;3.9;66.6
77469;BME280;68840;50.272;12.818;2023-11-19T00:04:05;96022;;;3.9;66.9
77469;BME280;68840;50.272;12.818;2023-11-19T00:06:06;96014;;;3.9;66.5
77469;BME280;68840;50.272;12.818;2023-11-19T00:08:06;96005;;;3.9;66.5
77469;BME280;68840;50.272;12.818;2023-11-19T00:10:06;96000;;;3.9;66.8
77469;BME280;68840;50.272;12.818;2023-11-19T00:12:06;96000;;;3.9;67.0
77469;BME280;68840;50.272;12.818;2023-11-19T00:14:08;95999;;;3.8;67.4
77469;BME280;68840;50.272;12.818;2023-11-19T00:16:07;96002;;;3.8;66.9
77469;BME280;68840;50.272;12.818;2023-11-19T00:18:05;96000;;;3.8;67.2
77469;BME280;68840;50.272;12.818;2023-11-19T00:20:06;95992;;;3.8;66.9
77469;BME280;68840;50.272;12.818;2023-11-19T00:22:05;95984;;;3.8;67.1
77469;BME280;68840;50.272;12.818;2023-11-19T00:24:06;95979;;;3.8;67.1
77469;BME280;68840;50.272;12.818;2023-11-19T00:26:06;95976;;;3.9;67.2
77469;BME280;68840;50.272;12.818;2023-11-19T00:28:05;95970;;;3.9;67.1
77469;BME280;68840;50.272;12.818;2023-11-19T00:30:06;95962;;;3.9;67.0
77469;BME280;68840;50.272;12.818;2023-11-19T00:32:05;95959;;;3.9;67.2
77469;BME280;68840;50.272;12.818;2023-11-19T00:34:06;95965;;;3.9;66.7
77469;BME280;68840;50.272;12.818;2023-11-19T00:36:06;95963;;;3.9;66.8
77469;BME280;68840;50.272;12.818;2023-11-19T00:38:05;95962;;;3.9;67.0
77469;BME280;68840;50.272;12.818;2023-11-19T00:40:06;95958;;;3.8;67.3
77469;BME280;68840;50.272;12.818;2023-11-19T00:42:05;95954;;;3.9;67.4
77469;BME280;68840;50.272;12.818;2023-11-19T00:44:05;95958;;;3.9;67.6
77469;BME280;68840;50.272;12.818;2023-11-19T00:46:07;95956;;;3.9;67.4
77469;BME280;68840;50.272;12.818;2023-11-19T00:48:05;95953;;;3.9;67.1
77469;BME280;68840;50.272;12.818;2023-11-19T00:50:06;95946;;;3.9;67.2
77469;BME280;68840;50.272;12.818;2023-11-19T00:52:06;95934;;;3.9;67.8
77469;BME280;68840;50.272;12.818;2023-11-19T00:54:05;95933;;;3.9;68.0
77469;BME280;68840;50.272;12.818;2023-11-19T00:56:05;95928;;;3.9;68.5
77469;BME280;68840;50.272;12.818;2023-11-19T00:58:05;95923;;;4.0;68.0
77469;BME280;68840;50.272;12.818;2023-11-19T01:00:18;95924;;;4.0;68.3
77469;BME280;68840;50.272;12.818;2023-11-19T01:02:06;95925;;;4.0;68.1
77469;BME280;68840;50.272;12.818;2023-11-19T01:04:05;95921;;;4.0;68.1
77469;BME280;68840;50.272;12.818;2023-11-19T01:06:06;95924;;;4.0;68.5
77469;BME280;68840;50.272;12.818;2023-11-19T01:08:06;95927;;;4.1;67.9
77469;BME280;68840;50.272;12.818;2023-11-19T01:10:06;95927;;;4.1;67.8
77469;BME280;68840;50.272;12.818;2023-11-19T01:12:06;95923;;;4.1;67.5
77469;BME280;68840;50.272;12.818;2023-11-19T01:14:05;95924;;;4.1;67.9
77469;BME280;68840;50.272;12.818;2023-11-19T01:16:07;95920;;;4.1;68.1
77469;BME280;68840;50.272;12.818;2023-11-19T01:18:05;95915;;;4.1;68.2
77469;BME280;68840;50.272;12.818;2023-11-19T01:20:07;95913;;;4.1;68.0
77469;BME280;68840;50.272;12.818;2023-11-19T01:22:05;95912;;;4.1;67.8
77469;BME280;68840;50.272;12.818;2023-11-19T01:24:09;95905;;;4.2;67.5
77469;BME280;68840;50.272;12.818;2023-11-19T01:26:05;95899;;;4.2;67.6
77469;BME280;68840;50.272;12.818;2023-11-19T01:28:05;95897;;;4.2;68.3
77469;BME280;68840;50.272;12.818;2023-11-19T01:30:09;95892;;;4.2;68.5
77469;BME280;68840;50.272;12.818;2023-11-19T01:32:05;95887;;;4.2;68.4
77469;BME280;68840;50.272;12.818;2023-11-19T01:34:05;95883;;;4.2;68.6
77469;BME280;68840;50.272;12.818;2023-11-19T01:36:05;95889;;;4.3;67.8
77469;BME280;68840;50.272;12.818;2023-11-19T01:38:05;95882;;;4.3;68.0
77469;BME280;68840;50.272;12.818;2023-11-19T01:40:08;95865;;;4.3;68.0
77469;BME280;68840;50.272;12.818;2023-11-19T01:42:06;95867;;;4.3;68.4
77469;BME280;68840;50.272;12.818;2023-11-19T01:44:06;95875;;;4.3;67.7
77469;BME280;68840;50.272;12.818;2023-11-19T01:46:06;95884;;;4.3;67.4
77469;BME280;68840;50.272;12.818;2023-11-19T01:48:06;95883;;;4.3;68.3
77469;BME280;68840;50.272;12.818;2023-11-19T01:50:06;95880;;;4.3;68.7
77469;BME280;68840;50.272;12.818;2023-11-19T01:52:05;95881;;;4.4;67.9
77469;BME280;68840;50.272;12.818;2023-11-19T01:54:07;95875;;;4.4;67.8
77469;BME280;68840;50.272;12.818;2023-11-19T01:56:09;95866;;;4.4;68.3
77469;BME280;68840;50.272;12.818;2023-11-19T01:58:05;95866;;;4.4;67.9
77469;BME280;68840;50.272;12.818;2023-11-19T02:00:06;95855;;;4.4;68.2
77469;BME280;68840;50.272;12.818;2023-11-19T02:02:06;95845;;;4.5;68.3
77469;BME280;68840;50.272;12.818;2023-11-19T02:04:06;95833;;;4.5;68.3
77469;BME280;68840;50.272;12.818;2023-11-19T02:06:06;95834;;;4.5;67.9
77469;BME280;68840;50.272;12.818;2023-11-19T02:08:05;95824;;;4.6;68.2
77469;BME280;68840;50.272;12.818;2023-11-19T02:10:06;95817;;;4.6;68.1
77469;BME280;68840;50.272;12.818;2023-11-19T02:12:06;95819;;;4.6;68.0
77469;BME280;68840;50.272;12.818;2023-11-19T02:14:05;95815;;;4.6;67.6
77469;BME280;68840;50.272;12.818;2023-11-19T02:16:06;95814;;;4.6;67.7
77469;BME280;68840;50.272;12.818;2023-11-19T02:18:22;95815;;;4.6;67.3
77469;BME280;68840;50.272;12.818;2023-11-19T02:20:06;95811;;;4.6;67.9
77469;BME280;68840;50.272;12.818;2023-11-19T02:22:05;95800;;;4.5;68.0
77469;BME280;68840;50.272;12.818;2023-11-19T02:24:07;95784;;;4.5;68.2
77469;BME280;68840;50.272;12.818;2023-11-19T02:26:15;95788;;;4.5;68.3
77469;BME280;68840;50.272;12.818;2023-11-19T02:28:05;95794;;;4.6;68.0
77469;BME280;68840;50.272;12.818;2023-11-19T02:30:08;95791;;;4.6;68.4
77469;BME280;68840;50.272;12.818;2023-11-19T02:32:09;95784;;;4.6;68.7
77469;BME280;68840;50.272;12.818;2023-11-19T02:34:05;95784;;;4.6;68.7
77469;BME280;68840;50.272;12.818;2023-11-19T02:36:07;95787;;;4.6;68.1
77469;BME280;68840;50.272;12.818;2023-11-19T02:38:06;95786;;;4.6;68.1
77469;BME280;68840;50.272;12.818;2023-11-19T02:40:08;95779;;;4.6;68.9
77469;BME280;68840;50.272;12.818;2023-11-19T02:42:06;95773;;;4.6;68.5
77469;BME280;68840;50.272;12.818;2023-11-19T02:44:05;95770;;;4.6;68.6
77469;BME280;68840;50.272;12.818;2023-11-19T02:46:07;95769;;;4.6;68.7
77469;BME280;68840;50.272;12.818;2023-11-19T02:48:06;95771;;;4.7;68.3
77469;BME280;68840;50.272;12.818;2023-11-19T02:50:07;95767;;;4.7;68.2
77469;BME280;68840;50.272;12.818;2023-11-19T02:52:06;95756;;;4.7;68.6
77469;BME280;68840;50.272;12.818;2023-11-19T02:54:05;95750;;;4.7;68.2
77469;BME280;68840;50.272;12.818;2023-11-19T02:56:11;95748;;;4.7;68.4
77469;BME280;68840;50.272;12.818;2023-11-19T02:58:11;95747;;;4.7;67.8
77469;BME280;68840;50.272;12.818;2023-11-19T03:00:12;95742;;;4.7;68.2
77469;BME280;68840;50.272;12.818;2023-11-19T03:02:06;95729;;;4.8;68.2
77469;BME280;68840;50.272;12.818;2023-11-19T03:04:05;95723;;;4.8;68.2
77469;BME280;68840;50.272;12.818;2023-11-19T03:06:06;95722;;;4.8;68.1
77469;BME280;68840;50.272;12.818;2023-11-19T03:08:05;95719;;;4.8;67.9
77469;BME280;68840;50.272;12.818;2023-11-19T03:10:06;95708;;;4.8;68.4
77469;BME280;68840;50.272;12.818;2023-11-19T03:12:06;95705;;;4.8;68.2
77469;BME280;68840;50.272;12.818;2023-11-19T03:14:05;95708;;;4.8;68.4
77469;BME280;68840;50.272;12.818;2023-11-19T03:16:05;95708;;;4.8;68.6
77469;BME280;68840;50.272;12.818;2023-11-19T03:18:05;95702;;;4.8;68.7
77469;BME280;68840;50.272;12.818;2023-11-19T03:20:07;95699;;;4.8;68.0
77469;BME280;68840;50.272;12.818;2023-11-19T03:22:05;95699;;;4.8;68.2
77469;BME280;68840;50.272;12.818;2023-11-19T03:24:05;95697;;;4.8;68.2
77469;BME280;68840;50.272;12.818;2023-11-19T03:26:05;95693;;;4.8;67.9
77469;BME280;68840;50.272;12.818;2023-11-19T03:28:06;95694;;;4.8;68.4
77469;BME280;68840;50.272;12.818;2023-11-19T03:30:06;95693;;;4.9;68.9
77469;BME280;68840;50.272;12.818;2023-11-19T03:32:05;95692;;;4.9;68.6
77469;BME280;68840;50.272;12.818;2023-11-19T03:34:05;95693;;;4.9;68.3
77469;BME280;68840;50.272;12.818;2023-11-19T03:36:06;95692;;;4.9;68.2
77469;BME280;68840;50.272;12.818;2023-11-19T03:38:05;95687;;;4.9;68.2
77469;BME280;68840;50.272;12.818;2023-11-19T03:40:06;95684;;;5.0;68.7
77469;BME280;68840;50.272;12.818;2023-11-19T03:42:05;95677;;;5.0;68.8
77469;BME280;68840;50.272;12.818;2023-11-19T03:44:05;95674;;;5.0;68.8
77469;BME280;68840;50.272;12.818;2023-11-19T03:46:16;95674;;;5.0;68.7
77469;BME280;68840;50.272;12.818;2023-11-19T03:48:05;95672;;;5.1;68.1
77469;BME280;68840;50.272;12.818;2023-11-19T03:50:07;95675;;;5.1;67.5
77469;BME280;68840;50.272;12.818;2023-11-19T03:52:05;95677;;;5.1;66.9
77469;BME280;68840;50.272;12.818;2023-11-19T03:54:06;95675;;;5.1;67.3
77469;BME280;68840;50.272;12.818;2023-11-19T03:56:06;95671;;;5.1;68.0
77469;BME280;68840;50.272;12.818;2023-11-19T03:58:05;95666;;;5.1;68.0
77469;BME280;68840;50.272;12.818;2023-11-19T04:00:08;95661;;;5.2;67.3
77469;BME280;68840;50.272;12.818;2023-11-19T04:02:06;95656;;;5.2;67.0
77469;BME280;68840;50.272;12.818;2023-11-19T04:04:06;95648;;;5.2;67.5
77469;BME280;68840;50.272;12.818;2023-11-19T04:06:05;95642;;;5.2;67.7
77469;BME280;68840;50.272;12.818;2023-11-19T04:08:05;95644;;;5.2;67.3
77469;BME280;68840;50.272;12.818;2023-11-19T04:10:05;95645;;;5.2;67.1
77469;BME280;68840;50.272;12.818;2023-11-19T04:12:06;95641;;;5.1;66.8
77469;BME280;68840;50.272;12.818;2023-11-19T04:14:05;95637;;;5.1;67.5
77469;BME280;68840;50.272;12.818;2023-11-19T04:16:05;95635;;;5.1;68.0
77469;BME280;68840;50.272;12.818;2023-11-19T04:18:05;95635;;;5.1;67.4
77469;BME280;68840;50.272;12.818;2023-11-19T04:20:06;95636;;;5.1;67.5
77469;BME280;68840;50.272;12.818;2023-11-19T04:22:06;95632;;;5.1;67.8
77469;BME280;68840;50.272;12.818;2023-11-19T04:24:05;95627;;;5.2;67.9
77469;BME280;68840;50.272;12.818;2023-11-19T04:26:06;95625;;;5.2;68.1
77469;BME280;68840;50.272;12.818;2023-11-19T04:28:05;95622;;;5.2;68.3
77469;BME280;68840;50.272;12.818;2023-11-19T04:30:10;95616;;;5.2;68.3
77469;BME280;68840;50.272;12.818;2023-11-19T04:32:06;95610;;;5.2;68.3
77469;BME280;68840;50.272;12.818;2023-11-19T04:34:06;95603;;;5.3;68.0
77469;BME280;68840;50.272;12.818;2023-11-19T04:36:07;95599;;;5.3;68.2
77469;BME280;68840;50.272;12.818;2023-11-19T04:38:05;95594;;;5.3;68.3
77469;BME280;68840;50.272;12.818;2023-11-19T04:40:06;95589;;;5.3;68.3
77469;BME280;68840;50.272;12.818;2023-11-19T04:42:06;95583;;;5.3;68.4
77469;BME280;68840;50.272;12.818;2023-11-19T04:44:05;95579;;;5.3;68.5
77469;BME280;68840;50.272;12.818;2023-11-19T04:46:06;95571;;;5.3;68.5
77469;BME280;68840;50.272;12.818;2023-11-19T04:48:05;95563;;;5.4;68.6
77469;BME280;68840;50.272;12.818;2023-11-19T04:50:06;95562;;;5.4;68.4
77469;BME280;68840;50.272;12.818;2023-11-19T04:52:05;95567;;;5.4;68.8
77469;BME280;68840;50.272;12.818;2023-11-19T04:54:05;95578;;;5.4;68.7
77469;BME280;68840;50.272;12.818;2023-11-19T04:56:09;95579;;;5.4;68.8
77469;BME280;68840;50.272;12.818;2023-11-19T04:58:05;95577;;;5.4;68.7
77469;BME280;68840;50.272;12.818;2023-11-19T05:00:07;95569;;;5.4;69.1
77469;BME280;68840;50.272;12.818;2023-11-19T05:02:05;95565;;;5.4;69.1
77469;BME280;68840;50.272;12.818;2023-11-19T05:04:06;95556;;;5.4;69.1
77469;BME280;68840;50.272;12.818;2023-11-19T05:06:06;95552;;;5.5;69.2
77469;BME280;68840;50.272;12.818;2023-11-19T05:08:05;95556;;;5.5;69.3
77469;BME280;68840;50.272;12.818;2023-11-19T05:10:06;95554;;;5.5;69.2
77469;BME280;68840;50.272;12.818;2023-11-19T05:12:08;95552;;;5.5;69.4
77469;BME280;68840;50.272;12.818;2023-11-19T05:14:05;95553;;;5.5;69.4
77469;BME280;68840;50.272;12.818;2023-11-19T05:16:06;95552;;;5.5;69.4
77469;BME280;68840;50.272;12.818;2023-11-19T05:18:05;95558;;;5.5;69.4
77469;BME280;68840;50.272;12.818;2023-11-19T05:20:13;95558;;;5.5;69.3
77469;BME280;68840;50.272;12.818;2023-11-19T05:22:06;95560;;;5.5;69.2
77469;BME280;68840;50.272;12.818;2023-11-19T05:24:06;95554;;;5.5;69.2
77469;BME280;68840;50.272;12.818;2023-11-19T05:26:05;95551;;;5.5;69.2
77469;BME280;68840;50.272;12.818;2023-11-19T05:28:05;95551;;;5.5;69.2
77469;BME280;68840;50.272;12.818;2023-11-19T05:30:07;95551;;;5.5;69.2
77469;BME280;68840;50.272;12.818;2023-11-19T05:32:05;95557;;;5.5;69.1
77469;BME280;68840;50.272;12.818;2023-11-19T05:34:06;95557;;;5.5;69.5
77469;BME280;68840;50.272;12.818;2023-11-19T05:36:08;95553;;;5.5;69.7
77469;BME280;68840;50.272;12.818;2023-11-19T05:38:06;95546;;;5.5;69.7
77469;BME280;68840;50.272;12.818;2023-11-19T05:40:13;95546;;;5.5;70.0
77469;BME280;68840;50.272;12.818;2023-11-19T05:42:05;95553;;;5.5;69.9
77469;BME280;68840;50.272;12.818;2023-11-19T05:44:06;95549;;;5.5;70.0
77469;BME280;68840;50.272;12.818;2023-11-19T05:46:05;95541;;;5.6;70.1
77469;BME280;68840;50.272;12.818;2023-11-19T05:48:05;95534;;;5.6;70.1
77469;BME280;68840;50.272;12.818;2023-11-19T05:50:06;95536;;;5.6;70.2
77469;BME280;68840;50.272;12.818;2023-11-19T05:52:07;95535;;;5.6;70.2
77469;BME280;68840;50.272;12.818;2023-11-19T05:54:08;95526;;;5.6;70.2
77469;BME280;68840;50.272;12.818;2023-11-19T05:56:08;95520;;;5.6;70.2
77469;BME280;68840;50.272;12.818;2023-11-19T05:58:06;95516;;;5.6;70.4
77469;BME280;68840;50.272;12.818;2023-11-19T06:00:06;95513;;;5.6;70.4
77469;BME280;68840;50.272;12.818;2023-11-19T06:02:05;95517;;;5.7;70.7
77469;BME280;68840;50.272;12.818;2023-11-19T06:04:06;95517;;;5.7;70.6
77469;BME280;68840;50.272;12.818;2023-11-19T06:06:06;95514;;;5.7;70.4
77469;BME280;68840;50.272;12.818;2023-11-19T06:08:06;95507;;;5.7;70.3
77469;BME280;68840;50.272;12.818;2023-11-19T06:10:06;95504;;;5.8;70.3
77469;BME280;68840;50.272;12.818;2023-11-19T06:12:07;95506;;;5.8;70.4
77469;BME280;68840;50.272;12.818;2023-11-19T06:14:06;95511;;;5.8;70.7
77469;BME280;68840;50.272;12.818;2023-11-19T06:16:07;95504;;;5.8;70.8
77469;BME280;68840;50.272;12.818;2023-11-19T06:18:05;95507;;;5.8;70.7
77469;BME280;68840;50.272;12.818;2023-11-19T06:20:07;95509;;;5.8;70.7
77469;BME280;68840;50.272;12.818;2023-11-19T06:22:05;95512;;;5.8;70.6
77469;BME280;68840;50.272;12.818;2023-11-19T06:24:05;95518;;;5.8;70.8
77469;BME280;68840;50.272;12.818;2023-11-19T06:26:05;95513;;;5.8;70.9
77469;BME280;68840;50.272;12.818;2023-11-19T06:28:05;95510;;;5.8;71.0
77469;BME280;68840;50.272;12.818;2023-11-19T06:30:06;95513;;;5.8;71.0
77469;BME280;68840;50.272;12.818;2023-11-19T06:32:06;95503;;;5.9;71.2
77469;BME280;68840;50.272;12.818;2023-11-19T06:34:05;95504;;;5.9;71.1
77469;BME280;68840;50.272;12.818;2023-11-19T06:36:07;95502;;;5.9;71.1
77469;BME280;68840;50.272;12.818;2023-11-19T06:38:05;95503;;;5.9;71.5
77469;BME280;68840;50.272;12.818;2023-11-19T06:40:07;95512;;;5.9;71.0
77469;BME280;68840;50.272;12.818;2023-11-19T06:42:06;95507;;;5.9;71.3
77469;BME280;68840;50.272;12.818;2023-11-19T06:44:05;95504;;;5.9;71.0
77469;BME280;68840;50.272;12.818;2023-11-19T06:46:13;95504;;;5.9;71.1
77469;BME280;68840;50.272;12.818;2023-11-19T06:48:05;95506;;;5.9;71.1
77469;BME280;68840;50.272;12.818;2023-11-19T06:50:07;95516;;;6.0;71.0
77469;BME280;68840;50.272;12.818;2023-11-19T06:52:05;95516;;;6.0;70.9
77469;BME280;68840;50.272;12.818;2023-11-19T06:54:05;95516;;;6.0;70.9
77469;BME280;68840;50.272;12.818;2023-11-19T06:56:10;95518;;;6.0;71.0
77469;BME280;68840;50.272;12.818;2023-11-19T06:58:05;95521;;;6.0;71.4
77469;BME280;68840;50.272;12.818;2023-11-19T07:00:06;95522;;;6.0;71.4
77469;BME280;68840;50.272;12.818;2023-11-19T07:02:06;95524;;;6.0;71.3
77469;BME280;68840;50.272;12.818;2023-11-19T07:04:10;95526;;;6.0;71.5
77469;BME280;68840;50.272;12.818;2023-11-19T07:06:05;95527;;;6.1;71.2
77469;BME280;68840;50.272;12.818;2023-11-19T07:08:07;95529;;;6.1;71.3
77469;BME280;68840;50.272;12.818;2023-11-19T07:10:08;95529;;;6.1;71.3
77469;BME280;68840;50.272;12.818;2023-11-19T07:12:05;95528;;;6.1;71.6
77469;BME280;68840;50.272;12.818;2023-11-19T07:14:06;95528;;;6.1;71.4
77469;BME280;68840;50.272;12.818;2023-11-19T07:16:06;95529;;;6.2;71.2
77469;BME280;68840;50.272;12.818;2023-11-19T07:18:05;95528;;;6.2;71.4
77469;BME280;68840;50.272;12.818;2023-11-19T07:20:05;95530;;;6.2;71.5
77469;BME280;68840;50.272;12.818;2023-11-19T07:22:06;95536;;;6.2;71.3
77469;BME280;68840;50.272;12.818;2023-11-19T07:24:07;95541;;;6.2;71.4
77469;BME280;68840;50.272;12.818;2023-11-19T07:26:08;95543;;;6.2;71.5
77469;BME280;68840;50.272;12.818;2023-11-19T07:28:05;95548;;;6.3;71.6
77469;BME280;68840;50.272;12.818;2023-11-19T07:30:07;95543;;;6.3;71.4
77469;BME280;68840;50.272;12.818;2023-11-19T07:32:05;95543;;;6.3;71.6
77469;BME280;68840;50.272;12.818;2023-11-19T07:34:06;95545;;;6.3;71.7
77469;BME280;68840;50.272;12.818;2023-11-19T07:36:06;95548;;;6.4;71.9
77469;BME280;68840;50.272;12.818;2023-11-19T07:38:05;95550;;;6.4;71.7
77469;BME280;68840;50.272;12.818;2023-11-19T07:40:06;95542;;;6.4;71.5
77469;BME280;68840;50.272;12.818;2023-11-19T07:42:06;95541;;;6.5;71.5
77469;BME280;68840;50.272;12.818;2023-11-19T07:44:06;95543;;;6.5;71.5
77469;BME280;68840;50.272;12.818;2023-11-19T07:46:08;95546;;;6.5;71.4
77469;BME280;68840;50.272;12.818;2023-11-19T07:48:06;95545;;;6.5;71.1
77469;BME280;68840;50.272;12.818;2023-11-19T07:50:06;95548;;;6.5;71.4
77469;BME280;68840;50.272;12.818;2023-11-19T07:52:05;95550;;;6.6;71.7
77469;BME280;68840;50.272;12.818;2023-11-19T07:54:05;95552;;;6.6;71.7
77469;BME280;68840;50.272;12.818;2023-11-19T07:56:05;95549;;;6.6;71.8
77469;BME280;68840;50.272;12.818;2023-11-19T07:58:06;95551;;;6.6;71.9
77469;BME280;68840;50.272;12.818;2023-11-19T08:00:07;95555;;;6.6;72.1
77469;BME280;68840;50.272;12.818;2023-11-19T08:02:05;95563;;;6.7;71.8
77469;BME280;68840;50.272;12.818;2023-11-19T08:04:05;95564;;;6.7;71.7
77469;BME280;68840;50.272;12.818;2023-11-19T08:06:06;95549;;;6.7;71.9
77469;BME280;68840;50.272;12.818;2023-11-19T08:08:05;95544;;;6.7;72.0
77469;BME280;68840;50.272;12.818;2023-11-19T08:10:09;95537;;;6.7;72.2
77469;BME280;68840;50.272;12.818;2023-11-19T08:12:06;95532;;;6.8;72.3
77469;BME280;68840;50.272;12.818;2023-11-19T08:14:05;95531;;;6.8;72.4
77469;BME280;68840;50.272;12.818;2023-11-19T08:16:06;95525;;;6.8;72.4
77469;BME280;68840;50.272;12.818;2023-11-19T08:18:05;95517;;;6.8;72.5
77469;BME280;68840;50.272;12.818;2023-11-19T08:20:07;95519;;;6.9;72.5
77469;BME280;68840;50.272;12.818;2023-11-19T08:22:05;95533;;;6.9;73.7
77469;BME280;68840;50.272;12.818;2023-11-19T08:24:05;95542;;;7.0;74.1
77469;BME280;68840;50.272;12.818;2023-11-19T08:26:05;95533;;;7.0;73.6
77469;BME280;68840;50.272;12.818;2023-11-19T08:28:05;95533;;;7.1;73.1
77469;BME280;68840;50.272;12.818;2023-11-19T08:30:06;95540;;;7.1;73.1
77469;BME280;68840;50.272;12.818;2023-11-19T08:32:06;95539;;;7.2;73.0
77469;BME280;68840;50.272;12.818;2023-11-19T08:34:08;95535;;;7.2;72.3
77469;BME280;68840;50.272;12.818;2023-11-19T08:36:06;95531;;;7.3;71.7
77469;BME280;68840;50.272;12.818;2023-11-19T08:38:05;95532;;;7.3;71.6
77469;BME280;68840;50.272;12.818;2023-11-19T08:40:07;95536;;;7.3;71.4
77469;BME280;68840;50.272;12.818;2023-11-19T08:42:06;95539;;;7.3;71.7
77469;BME280;68840;50.272;12.818;2023-11-19T08:44:05;95539;;;7.3;71.5
77469;BME280;68840;50.272;12.818;2023-11-19T08:46:09;95537;;;7.3;71.1
77469;BME280;68840;50.272;12.818;2023-11-19T08:48:05;95534;;;7.3;71.6
77469;BME280;68840;50.272;12.818;2023-11-19T08:50:06;95535;;;7.3;72.1
77469;BME280;68840;50.272;12.818;2023-11-19T08:52:07;95534;;;7.3;71.3
77469;BME280;68840;50.272;12.818;2023-11-19T08:54:05;95532;;;7.4;71.0
77469;BME280;68840;50.272;12.818;2023-11-19T08:56:07;95534;;;7.4;70.7
77469;BME280;68840;50.272;12.818;2023-11-19T08:58:06;95534;;;7.4;70.5
77469;BME280;68840;50.272;12.818;2023-11-19T09:00:08;95534;;;7.4;70.4
77469;BME280;68840;50.272;12.818;2023-11-19T09:02:06;95533;;;7.4;70.3
77469;BME280;68840;50.272;12.818;2023-11-19T09:04:06;95534;;;7.5;70.2
77469;BME280;68840;50.272;12.818;2023-11-19T09:06:05;95530;;;7.5;70.0
77469;BME280;68840;50.272;12.818;2023-11-19T09:08:06;95530;;;7.5;70.3
77469;BME280;68840;50.272;12.818;2023-11-19T09:10:05;95531;;;7.6;70.0
77469;BME280;68840;50.272;12.818;2023-11-19T09:12:07;95532;;;7.6;70.2
77469;BME280;68840;50.272;12.818;2023-11-19T09:14:05;95534;;;7.6;70.6
77469;BME280;68840;50.272;12.818;2023-11-19T09:16:05;95532;;;7.7;70.6
77469;BME280;68840;50.272;12.818;2023-11-19T09:18:05;95533;;;7.7;70.3
77469;BME280;68840;50.272;12.818;2023-11-19T09:20:06;95534;;;7.8;70.2
77469;BME280;68840;50.272;12.818;2023-11-19T09:22:05;95529;;;7.8;70.1
77469;BME280;68840;50.272;12.818;2023-11-19T09:24:08;95523;;;7.8;70.4
77469;BME280;68840;50.272;12.818;2023-11-19T09:26:06;95520;;;7.9;70.3
77469;BME280;68840;50.272;12.818;2023-11-19T09:28:05;95519;;;7.9;70.1
77469;BME280;68840;50.272;12.818;2023-11-19T09:30:08;95517;;;7.9;70.6
77469;BME280;68840;50.272;12.818;2023-11-19T09:32:06;95518;;;7.9;70.1
77469;BME280;68840;50.272;12.818;2023-11-19T09:34:05;95512;;;7.9;69.8
77469;BME280;68840;50.272;12.818;2023-11-19T09:36:06;95506;;;8.0;70.6
77469;BME280;68840;50.272;12.818;2023-11-19T09:38:05;95507;;;8.0;70.8
77469;BME280;68840;50.272;12.818;2023-11-19T09:40:09;95512;;;8.0;71.2
77469;BME280;68840;50.272;12.818;2023-11-19T09:42:06;95513;;;8.0;71.7
77469;BME280;68840;50.272;12.818;2023-11-19T09:44:06;95514;;;8.0;72.0
77469;BME280;68840;50.272;12.818;2023-11-19T09:46:08;95514;;;8.0;72.5
77469;BME280;68840;50.272;12.818;2023-11-19T09:48:06;95511;;;8.1;72.2
77469;BME280;68840;50.272;12.818;2023-11-19T09:50:05;95508;;;8.1;72.2
77469;BME280;68840;50.272;12.818;2023-11-19T09:52:06;95507;;;8.1;72.5
77469;BME280;68840;50.272;12.818;2023-11-19T09:54:05;95518;;;8.1;72.8
77469;BME280;68840;50.272;12.818;2023-11-19T09:56:06;95526;;;8.2;73.2
77469;BME280;68840;50.272;12.818;2023-11-19T09:58:07;95523;;;8.2;74.0
77469;BME280;68840;50.272;12.818;2023-11-19T10:00:07;95519;;;8.2;73.8
77469;BME280;68840;50.272;12.818;2023-11-19T10:02:07;95514;;;8.3;73.8
77469;BME280;68840;50.272;12.818;2023-11-19T10:04:06;95511;;;8.4;74.1
77469;BME280;68840;50.272;12.818;2023-11-19T10:06:07;95506;;;8.4;74.1
77469;BME280;68840;50.272;12.818;2023-11-19T10:08:06;95504;;;8.4;74.6
77469;BME280;68840;50.272;12.818;2023-11-19T10:10:06;95499;;;8.5;75.4
77469;BME280;68840;50.272;12.818;2023-11-19T10:12:06;95495;;;8.6;75.3
77469;BME280;68840;50.272;12.818;2023-11-19T10:14:06;95495;;;8.7;75.3
77469;BME280;68840;50.272;12.818;2023-11-19T10:16:08;95498;;;8.8;76.6
77469;BME280;68840;50.272;12.818;2023-11-19T10:18:05;95511;;;8.9;76.3
77469;BME280;68840;50.272;12.818;2023-11-19T10:20:08;95503;;;8.9;76.3
77469;BME280;68840;50.272;12.818;2023-11-19T10:22:06;95501;;;9.0;76.3
77469;BME280;68840;50.272;12.818;2023-11-19T10:24:05;95500;;;9.1;76.7
77469;BME280;68840;50.272;12.818;2023-11-19T10:26:06;95498;;;9.2;76.6
77469;BME280;68840;50.272;12.818;2023-11-19T10:28:05;95500;;;9.3;76.4
77469;BME280;68840;50.272;12.818;2023-11-19T10:30:07;95502;;;9.4;76.1
77469;BME280;68840;50.272;12.818;2023-11-19T10:32:06;95503;;;9.5;75.6
77469;BME280;68840;50.272;12.818;2023-11-19T10:34:24;95499;;;9.6;75.1
77469;BME280;68840;50.272;12.818;2023-11-19T10:36:05;95495;;;9.6;75.4
77469;BME280;68840;50.272;12.818;2023-11-19T10:38:15;95481;;;9.7;74.3
77469;BME280;68840;50.272;12.818;2023-11-19T10:40:06;95476;;;9.8;75.4
77469;BME280;68840;50.272;12.818;2023-11-19T10:42:15;95474;;;9.8;74.5
77469;BME280;68840;50.272;12.818;2023-11-19T10:44:05;95475;;;9.9;74.5
77469;BME280;68840;50.272;12.818;2023-11-19T10:46:10;95474;;;9.9;74.5
77469;BME280;68840;50.272;12.818;2023-11-19T10:48:06;95475;;;10.0;74.3
77469;BME280;68840;50.272;12.818;2023-11-19T10:50:06;95468;;;10.0;74.0
77469;BME280;68840;50.272;12.818;2023-11-19T10:52:05;95460;;;10.1;73.6
77469;BME280;68840;50.272;12.818;2023-11-19T10:54:06;95455;;;10.1;74.1
77469;BME280;68840;50.272;12.818;2023-11-19T10:56:10;95453;;;10.2;73.7
77469;BME280;68840;50.272;12.818;2023-11-19T10:58:06;95454;;;10.2;73.2
77469;BME280;68840;50.272;12.818;2023-11-19T11:00:12;95453;;;10.3;74.4
77469;BME280;68840;50.272;12.818;2023-11-19T11:02:09;95454;;;10.4;73.4
77469;BME280;68840;50.272;12.818;2023-11-19T11:04:06;95458;;;10.4;73.1
77469;BME280;68840;50.272;12.818;2023-11-19T11:06:05;95459;;;10.5;74.0
77469;BME280;68840;50.272;12.818;2023-11-19T11:08:06;95455;;;10.6;73.8
77469;BME280;68840;50.272;12.818;2023-11-19T11:10:07;95456;;;10.6;72.6
77469;BME280;68840;50.272;12.818;2023-11-19T11:12:06;95461;;;10.6;72.3
77469;BME280;68840;50.272;12.818;2023-11-19T11:14:06;95461;;;10.7;72.6
77469;BME280;68840;50.272;12.818;2023-11-19T11:16:08;95469;;;10.7;72.3
77469;BME280;68840;50.272;12.818;2023-11-19T11:18:08;95464;;;10.7;72.7
77469;BME280;68840;50.272;12.818;2023-11-19T11:20:09;95460;;;10.8;71.8